Argonia, KS

11:12 PM CDT on June 02, 2015 (GMT -0500)
Anthony Medical Center | | Change Station
CLOSE
Current Station
Personal Weather Station
Location: Anthony, KS
Elevation: 1355 ft
Nearby Weather Stations

Elev 1355 ft 37.16 °N, 98.02 °W | Updated 2 minutes ago

Clear
Clear
74.1 °F
Feels Like 74 °F
N
3.0
Wind Variable Wind from SE
Gusts 3.0 mph

Today
High -- | Low -- °F
--% Chance of Precip.
Yesterday
High -- | Low -- °F
Precip. -- in
6:11 AM 8:46 PM
Full, 100% visible
Pressure 29.83 in
Visibility 10.0 miles
Clouds Few 25000 ft
Heat Index 74 °F
Dew Point 68 °F
Humidity 80%
Rainfall 0.00 in
Snow Depth Not available.
UV 0 out of 12
Pollen 7.10 out of 12
Air Quality Not available.
Flu Activity No Activity
METAR KICT 030353Z 16011KT 10SM FEW250 24/19 A2988 RMK AO2 SLP102 T02440194

More Conditions Fewer Conditions

Pressure 29.83 in
Visibility 10.0 miles
Clouds Few 25000 ft
Heat Index 74 °F
Dew Point 68 °F
Humidity 80%
Rainfall 0.00 in
Snow Depth Not available.
UV 0 out of 12
Pollen 7.10 out of 12
Air Quality Not available.
Flu Activity No Activity
METAR KICT 030353Z 16011KT 10SM FEW250 24/19 A2988 RMK AO2 SLP102 T02440194

More Conditions Fewer Conditions

10-Day Weather Forecast

×

Almanac

Astronomy

Jun. 02, 2015 Rise Set
Actual Time
Civil Twilight
Nautical Twilight
Astronomical Twilight
Moon
Length of Visible Light
Length of Day
Tomorrow will be .
, % of the Moon is Illuminated

Today's Extremes

State Highs State Lows

Community

WunderPhotos

Upload Photos

1,826,159 photos uploaded!

WunderBlogs® & News

Nearby

Air Quality

  Air Quality AQ Index Pollutant
Not available.

Snow Depth

Station Depth Elevation

Earthquake Activity

City Distance Mag. Time & Date
Minimum magnitude displayed is 2.5.

Coastal Water Temperatures

Place Temperature

Stations

Nearby Weather Stations

Station Location Temp. Windchill Dew Point Humidity Wind Precip. Elev Updated Type